createdAt,value
2023-04-15T00:02:18.462Z,159157.75
2023-04-15T00:04:47.001Z,159157.75
2023-04-15T00:07:14.969Z,159164.44
2023-04-15T00:09:42.997Z,159137.72
2023-04-15T00:12:11.185Z,159129.75
2023-04-15T00:14:38.767Z,159156.44
2023-04-15T00:17:05.851Z,159151.06
2023-04-15T00:19:34.277Z,159152.41
2023-04-15T00:22:01.552Z,159155.06
2023-04-15T00:24:29.378Z,159111.03
2023-04-15T00:26:56.602Z,159149.75
2023-04-15T00:29:24.617Z,159144.41
2023-04-15T00:31:51.813Z,159139.06
2023-04-15T00:34:19.437Z,159141.75
2023-04-15T00:36:47.020Z,159141.75
2023-04-15T00:39:14.480Z,159133.72
2023-04-15T00:41:43.759Z,159123.06
2023-04-15T00:44:11.492Z,159081.72
2023-04-15T00:46:41.941Z,159037.72
2023-04-15T00:49:09.243Z,159009.72
2023-04-15T00:51:37.228Z,158976.38
2023-04-15T00:54:05.005Z,158941.69
2023-04-15T00:56:38.668Z,158965.72
2023-04-15T00:59:07.157Z,158977.69
2023-04-15T01:01:36.507Z,159001.72
2023-04-15T01:04:04.721Z,159003.03
2023-04-15T01:06:32.805Z,159013.69
2023-04-15T01:09:00.706Z,158999.03
2023-04-15T01:11:28.440Z,158983.03
2023-04-15T01:13:56.999Z,158940.38
2023-04-15T01:16:24.998Z,158939.06
2023-04-15T01:18:53.034Z,158909.72
2023-04-15T01:21:20.389Z,158908.34
2023-04-15T01:23:48.798Z,158897.72
2023-04-15T01:26:16.464Z,158915.03
2023-04-15T01:28:43.801Z,158900.38
2023-04-15T01:31:13.639Z,158899.03
2023-04-15T01:33:42.477Z,158917.72
2023-04-15T01:36:10.927Z,158899.03
2023-04-15T01:38:39.029Z,158893.69
2023-04-15T01:41:08.197Z,158896.41
2023-04-15T01:43:38.790Z,158881.72
2023-04-15T01:46:07.164Z,158871.06
2023-04-15T01:48:34.719Z,158872.38
2023-04-15T01:51:03.991Z,158853.75
2023-04-15T01:53:31.422Z,158829.72
2023-04-15T01:55:58.582Z,158824.38
2023-04-15T01:58:26.244Z,158793.75
2023-04-15T02:00:53.707Z,158803.06
2023-04-15T02:03:21.239Z,158796.38
2023-04-15T02:05:48.481Z,158787.09
2023-04-15T02:08:16.114Z,158777.72
2023-04-15T02:10:43.600Z,158764.38
2023-04-15T02:13:11.058Z,158765.72
2023-04-15T02:15:38.272Z,158777.72
2023-04-15T02:18:05.654Z,158773.69
2023-04-15T02:20:32.940Z,158775.03
2023-04-15T02:23:00.254Z,158763.06
2023-04-15T02:25:27.357Z,158761.75
2023-04-15T02:27:55.582Z,158748.41
2023-04-15T02:30:24.116Z,158735.06
2023-04-15T02:32:51.874Z,158741.75
2023-04-15T02:35:19.964Z,158735.06
2023-04-15T02:37:47.512Z,158740.41
2023-04-15T02:40:14.848Z,158725.72
2023-04-15T02:42:42.913Z,158723.06
2023-04-15T02:45:13.237Z,158705.78
2023-04-15T02:47:42.063Z,158708.41
2023-04-15T02:50:12.938Z,158717.72
2023-04-15T02:52:42.928Z,158713.75
2023-04-15T02:55:10.800Z,158719.06
2023-04-15T02:57:39.374Z,158712.44
2023-04-15T03:00:10.353Z,158717.72
2023-04-15T03:02:42.288Z,158723.06
2023-04-15T03:05:13.918Z,158724.41
2023-04-15T03:07:47.874Z,158737.72
2023-04-15T03:10:15.705Z,158739.03
2023-04-15T03:12:43.438Z,158720.44
2023-04-15T03:15:15.781Z,158744.38
2023-04-15T03:17:46.569Z,158765.72
2023-04-15T03:20:14.511Z,158760.38
2023-04-15T03:22:42.026Z,158759.03
2023-04-15T03:25:09.706Z,158779.03
2023-04-15T03:27:38.658Z,158755.06
2023-04-15T03:30:07.830Z,158761.75
2023-04-15T03:32:38.353Z,158776.41
2023-04-15T03:35:07.289Z,158771.06
2023-04-15T03:37:34.619Z,158779.03
2023-04-15T03:40:02.149Z,158777.72
2023-04-15T03:42:29.564Z,158795.06
2023-04-15T03:44:56.960Z,158789.78
2023-04-15T03:47:24.508Z,158791.09
2023-04-15T03:49:51.816Z,158779.03
2023-04-15T03:52:19.720Z,158797.75
2023-04-15T03:54:46.922Z,158789.78
2023-04-15T03:57:14.908Z,158765.72
2023-04-15T03:59:42.239Z,158787.09
2023-04-15T04:02:10.046Z,158793.75
2023-04-15T04:04:37.571Z,158791.09
2023-04-15T04:07:05.085Z,158784.44
2023-04-15T04:09:32.294Z,158788.41
2023-04-15T04:11:59.683Z,158805.75
2023-04-15T04:14:29.855Z,158805.75
2023-04-15T04:16:57.591Z,158773.69
2023-04-15T04:19:24.766Z,158781.75
2023-04-15T04:21:52.700Z,158809.72
2023-04-15T04:24:20.016Z,158819.09
2023-04-15T04:26:47.480Z,158797.75
2023-04-15T04:29:14.564Z,158820.41
2023-04-15T04:31:42.168Z,158799.09
2023-04-15T04:34:09.847Z,158781.75
2023-04-15T04:36:37.481Z,158796.38
2023-04-15T04:39:04.584Z,158788.41
2023-04-15T04:41:32.499Z,158780.41
2023-04-15T04:44:00.075Z,158793.75
2023-04-15T04:46:27.981Z,158780.41
2023-04-15T04:48:55.129Z,158771.06
2023-04-15T04:51:22.692Z,158771.06
2023-04-15T04:53:49.912Z,158748.41
2023-04-15T04:56:17.337Z,158764.38
2023-04-15T04:58:44.798Z,158757.72
2023-04-15T05:01:13.291Z,158749.72
2023-04-15T05:03:40.694Z,158745.72
2023-04-15T05:06:08.977Z,158740.41
2023-04-15T05:08:36.954Z,158727.09
2023-04-15T05:11:05.669Z,158733.75
2023-04-15T05:13:33.260Z,158720.44
2023-04-15T05:16:00.971Z,158727.09
2023-04-15T05:18:28.281Z,158727.09
2023-04-15T05:20:55.819Z,158735.06
2023-04-15T05:23:23.010Z,158713.75
2023-04-15T05:25:50.524Z,158729.75
2023-04-15T05:28:17.886Z,158709.75
2023-04-15T05:30:46.088Z,158727.09
2023-04-15T05:33:13.400Z,158725.72
2023-04-15T05:35:40.904Z,158707.09
2023-04-15T05:38:08.330Z,158728.41
2023-04-15T05:40:36.152Z,158723.06
2023-04-15T05:43:03.545Z,158728.41
2023-04-15T05:45:31.241Z,158716.41
2023-04-15T05:47:58.640Z,158716.41
2023-04-15T05:50:26.428Z,158729.75
2023-04-15T05:52:53.746Z,158723.06
2023-04-15T05:55:21.363Z,158725.72
2023-04-15T05:57:48.740Z,158736.41
2023-04-15T06:00:16.667Z,158732.38
2023-04-15T06:02:44.586Z,158736.41
2023-04-15T06:05:12.895Z,158724.41
2023-04-15T06:07:40.208Z,158715.09
2023-04-15T06:10:08.525Z,158725.72
2023-04-15T06:12:36.454Z,158683.09
2023-04-15T06:15:05.052Z,158697.75
2023-04-15T06:17:32.339Z,158688.44
2023-04-15T06:20:00.072Z,158725.72
2023-04-15T06:22:27.458Z,158715.09
2023-04-15T06:24:55.006Z,158700.44
2023-04-15T06:27:23.279Z,158719.06
2023-04-15T06:29:51.356Z,158720.44
2023-04-15T06:32:18.579Z,158731.06
2023-04-15T06:34:46.254Z,158724.41
2023-04-15T06:37:16.659Z,158721.75
2023-04-15T06:39:45.081Z,158727.09
2023-04-15T06:42:12.614Z,158724.41
2023-04-15T06:44:40.793Z,158712.44
2023-04-15T06:47:09.228Z,158699.13
2023-04-15T06:49:37.274Z,158724.41
2023-04-15T06:52:05.914Z,158707.09
2023-04-15T06:54:33.643Z,158705.78
2023-04-15T06:57:01.145Z,158679.13
2023-04-15T06:59:29.650Z,158716.41
2023-04-15T07:01:57.163Z,158715.09
2023-04-15T07:04:25.750Z,158716.41
2023-04-15T07:06:53.064Z,158719.06
2023-04-15T07:09:20.775Z,158716.41
2023-04-15T07:11:47.815Z,158720.44
2023-04-15T07:14:15.498Z,158705.78
2023-04-15T07:16:43.097Z,158723.06
2023-04-15T07:19:10.863Z,158725.72
2023-04-15T07:21:39.447Z,158712.44
2023-04-15T07:24:10.493Z,158717.72
2023-04-15T07:26:37.759Z,158720.44
2023-04-15T07:29:05.320Z,158695.09
2023-04-15T07:31:32.576Z,158729.75
2023-04-15T07:34:00.058Z,158712.44
2023-04-15T07:36:27.277Z,158731.06
2023-04-15T07:38:55.446Z,158717.72
2023-04-15T07:41:22.758Z,158728.41
2023-04-15T07:43:50.805Z,158741.75
2023-04-15T07:46:18.350Z,158725.72
2023-04-15T07:48:46.671Z,158709.75
2023-04-15T07:51:14.075Z,158737.72
2023-04-15T07:53:42.549Z,158747.03
2023-04-15T07:56:09.768Z,158729.75
2023-04-15T07:58:37.528Z,158733.75
2023-04-15T08:01:05.861Z,158739.03
2023-04-15T08:03:34.258Z,158745.72
2023-04-15T08:06:01.901Z,158731.06
2023-04-15T08:08:29.597Z,158741.75
2023-04-15T08:10:57.870Z,158755.06
2023-04-15T08:13:26.545Z,158763.06
2023-04-15T08:16:14.848Z,158759.03
2023-04-15T08:18:42.687Z,158765.72
2023-04-15T08:21:10.744Z,158767.03
2023-04-15T08:23:39.544Z,158759.03
2023-04-15T08:26:06.875Z,158759.03
2023-04-15T08:28:35.029Z,158777.72
2023-04-15T08:31:02.375Z,158760.38
2023-04-15T08:33:29.836Z,158796.38
2023-04-15T08:35:57.736Z,158797.75
2023-04-15T08:38:25.807Z,158789.78
2023-04-15T08:40:52.980Z,158815.06
2023-04-15T08:43:26.859Z,158821.72
2023-04-15T08:45:57.270Z,158821.72
2023-04-15T08:48:30.043Z,158820.41
2023-04-15T08:50:57.570Z,158821.72
2023-04-15T08:53:25.970Z,158828.41
2023-04-15T08:55:55.157Z,158833.75
2023-04-15T08:58:23.245Z,158841.72
2023-04-15T09:00:51.346Z,158831.03
2023-04-15T09:03:19.443Z,158843.06
2023-04-15T09:05:47.220Z,158864.38
2023-04-15T09:08:15.193Z,158848.41
2023-04-15T09:10:42.887Z,158861.75
2023-04-15T09:13:10.784Z,158853.75
2023-04-15T09:15:41.307Z,158865.72
2023-04-15T09:18:12.231Z,158873.69
2023-04-15T09:20:42.365Z,158880.38
2023-04-15T09:23:14.429Z,158907.03
2023-04-15T09:25:42.840Z,158915.03
2023-04-15T09:28:11.661Z,158921.69
2023-04-15T09:30:39.038Z,158911.06
2023-04-15T09:33:11.107Z,158917.72
2023-04-15T09:35:38.463Z,158911.06
2023-04-15T09:38:08.390Z,158920.38
2023-04-15T09:40:40.727Z,158923.00
2023-04-15T09:43:10.906Z,158920.38
2023-04-15T09:45:38.379Z,158917.72
2023-04-15T09:48:27.349Z,158911.06
2023-04-15T09:50:58.262Z,158917.72
2023-04-15T09:53:26.105Z,158885.72
2023-04-15T09:55:58.723Z,158908.34
2023-04-15T09:58:31.481Z,158909.72
2023-04-15T10:01:00.199Z,158907.03
2023-04-15T10:03:29.808Z,158916.41
2023-04-15T10:05:59.572Z,158923.00
2023-04-15T10:08:33.113Z,158932.38
2023-04-15T10:11:03.567Z,158928.34
2023-04-15T10:13:38.457Z,158937.72
2023-04-15T10:16:08.800Z,158949.69
2023-04-15T10:18:39.035Z,158939.06
2023-04-15T10:21:07.518Z,158973.72
2023-04-15T10:23:35.163Z,158981.72
2023-04-15T10:26:03.476Z,158991.03
2023-04-15T10:28:31.298Z,158996.38
2023-04-15T10:30:59.970Z,158996.38
2023-04-15T10:33:28.460Z,158968.38
2023-04-15T10:35:56.228Z,158975.03
2023-04-15T10:38:37.993Z,158980.38
2023-04-15T10:41:17.056Z,158961.72
2023-04-15T10:43:55.249Z,158989.69
2023-04-15T10:46:45.624Z,158976.38
2023-04-15T10:49:15.526Z,158976.38
2023-04-15T10:51:53.066Z,158953.72
2023-04-15T10:54:26.327Z,158968.38
2023-04-15T10:57:08.608Z,158973.72
2023-04-15T10:59:37.946Z,158987.06
2023-04-15T11:02:08.682Z,158988.38
2023-04-15T11:04:59.952Z,158991.03
2023-04-15T11:07:41.896Z,159001.72
2023-04-15T11:10:21.342Z,159013.69
2023-04-15T11:12:52.475Z,159013.69
2023-04-15T11:15:42.445Z,159035.03
2023-04-15T11:18:20.888Z,159035.03
2023-04-15T11:20:59.503Z,159045.72
2023-04-15T11:23:43.441Z,159051.06
2023-04-15T11:26:12.524Z,159048.34
2023-04-15T11:28:45.222Z,159057.72
2023-04-15T11:31:13.596Z,159051.06
2023-04-15T11:33:59.840Z,159056.34
2023-04-15T11:36:28.874Z,159060.38
2023-04-15T11:38:58.426Z,159064.41
2023-04-15T11:41:26.364Z,159072.41
2023-04-15T11:43:53.753Z,159043.06
2023-04-15T11:46:22.937Z,159064.41
2023-04-15T11:48:51.067Z,159071.06
2023-04-15T11:51:20.873Z,159077.69
2023-04-15T11:53:50.616Z,159068.38
2023-04-15T11:56:26.277Z,159063.03
2023-04-15T11:58:58.557Z,159069.69
2023-04-15T12:01:52.839Z,159089.72
2023-04-15T12:04:25.257Z,159079.06
2023-04-15T12:06:53.620Z,159084.38
2023-04-15T12:09:21.965Z,159091.03
2023-04-15T12:11:51.625Z,159061.69
2023-04-15T12:14:24.510Z,159077.69
2023-04-15T12:17:03.430Z,159061.69
2023-04-15T12:19:39.051Z,159052.38
2023-04-15T12:22:10.224Z,159055.03
2023-04-15T12:24:38.756Z,159063.03
2023-04-15T12:27:08.188Z,159056.34
2023-04-15T12:29:37.501Z,159041.69
2023-04-15T12:32:13.632Z,159051.06
2023-04-15T12:34:59.758Z,159048.34
2023-04-15T12:37:27.543Z,159016.38
2023-04-15T12:39:55.211Z,159044.38
2023-04-15T12:42:22.876Z,159065.72
2023-04-15T12:44:50.039Z,159071.06
2023-04-15T12:47:18.092Z,159069.69
2023-04-15T12:49:45.957Z,159075.03
2023-04-15T12:52:13.934Z,159091.03
2023-04-15T12:54:41.401Z,159079.06
2023-04-15T12:57:09.256Z,159081.72
2023-04-15T12:59:37.747Z,159076.38
2023-04-15T13:02:05.504Z,159075.03
2023-04-15T13:04:33.365Z,159060.38
2023-04-15T13:07:02.462Z,159049.69
2023-04-15T13:09:29.908Z,159039.03
2023-04-15T13:11:58.345Z,159072.41
2023-04-15T13:14:25.829Z,159068.38
2023-04-15T13:16:54.074Z,159080.38
2023-04-15T13:19:21.588Z,159093.72
2023-04-15T13:21:49.360Z,159113.75
2023-04-15T13:24:17.203Z,159108.41
2023-04-15T13:26:44.850Z,159088.38
2023-04-15T13:29:12.570Z,159084.38
2023-04-15T13:31:40.175Z,159068.38
2023-04-15T13:34:07.767Z,159073.72
2023-04-15T13:36:35.619Z,159087.06
2023-04-15T13:39:03.682Z,159077.69
2023-04-15T13:41:31.477Z,159077.69
2023-04-15T13:43:59.883Z,159048.34
2023-04-15T13:46:28.320Z,159024.38
2023-04-15T13:48:56.024Z,159005.69
2023-04-15T13:51:23.606Z,158984.34
2023-04-15T13:53:50.900Z,158973.72
2023-04-15T13:56:18.408Z,158979.00
2023-04-15T13:58:46.078Z,158987.06
2023-04-15T14:01:14.018Z,158988.38
2023-04-15T14:03:41.674Z,158995.06
2023-04-15T14:06:09.465Z,159004.38
2023-04-15T14:08:36.762Z,159013.69
2023-04-15T14:11:04.468Z,159027.03
2023-04-15T14:13:31.626Z,159036.41
2023-04-15T14:15:59.332Z,159051.06
2023-04-15T14:18:26.703Z,159065.72
2023-04-15T14:20:54.270Z,159064.41
2023-04-15T14:23:21.791Z,159079.06
2023-04-15T14:25:50.210Z,159099.03
2023-04-15T14:28:17.619Z,159129.75
2023-04-15T14:30:45.344Z,159111.03
2023-04-15T14:33:12.776Z,159123.06
2023-04-15T14:35:40.425Z,159109.72
2023-04-15T14:38:11.142Z,159116.41
2023-04-15T14:40:39.459Z,159104.38
2023-04-15T14:43:06.710Z,159113.75
2023-04-15T14:45:35.207Z,159111.03
2023-04-15T14:48:02.595Z,159083.03
2023-04-15T14:50:30.256Z,159087.06
2023-04-15T14:52:57.672Z,159087.06
2023-04-15T14:55:25.399Z,159103.06
2023-04-15T14:57:52.732Z,159105.69
2023-04-15T15:00:20.585Z,159108.41
2023-04-15T15:02:48.038Z,159096.38
2023-04-15T15:05:16.318Z,159109.72
2023-04-15T15:07:43.983Z,159127.03
2023-04-15T15:10:11.724Z,159145.72
2023-04-15T15:12:39.044Z,159141.75
2023-04-15T15:15:16.121Z,159157.75
2023-04-15T15:17:47.265Z,159155.06
2023-04-15T15:20:16.769Z,159169.78
2023-04-15T15:22:44.079Z,159148.38
2023-04-15T15:25:11.639Z,159153.72
2023-04-15T15:27:38.827Z,159156.44
2023-04-15T15:30:07.101Z,159153.72
2023-04-15T15:32:34.530Z,159157.75
2023-04-15T15:35:02.349Z,159143.09
2023-04-15T15:37:31.270Z,159152.41
2023-04-15T15:39:58.982Z,159155.06
2023-04-15T15:42:26.747Z,159168.41
2023-04-15T15:44:54.424Z,159155.06
2023-04-15T15:47:22.421Z,159165.75
2023-04-15T15:49:50.311Z,159189.75
2023-04-15T15:52:17.892Z,159179.09
2023-04-15T15:54:46.122Z,159165.75
2023-04-15T15:57:13.248Z,159165.75
2023-04-15T15:59:41.450Z,159168.41
2023-04-15T16:02:12.836Z,159180.41
2023-04-15T16:04:40.942Z,159171.09
2023-04-15T16:07:08.519Z,159180.41
2023-04-15T16:09:36.149Z,159193.75
2023-04-15T16:12:04.246Z,159212.47
2023-04-15T16:14:31.949Z,159212.47
2023-04-15T16:16:59.264Z,159196.41
2023-04-15T16:19:27.052Z,159195.09
2023-04-15T16:21:54.691Z,159168.41
2023-04-15T16:24:22.563Z,159187.09
2023-04-15T16:26:49.820Z,159184.44
2023-04-15T16:29:17.531Z,159180.41
2023-04-15T16:31:45.813Z,159175.06
2023-04-15T16:34:13.653Z,159168.41
2023-04-15T16:36:41.012Z,159148.38
2023-04-15T16:39:08.676Z,159171.09
2023-04-15T16:41:36.669Z,159189.75
2023-04-15T16:44:04.572Z,159184.44
2023-04-15T16:46:32.166Z,159172.41
2023-04-15T16:49:00.051Z,159184.44
2023-04-15T16:51:30.664Z,159171.09
2023-04-15T16:53:59.237Z,159156.44
2023-04-15T16:56:27.381Z,159128.41
2023-04-15T16:58:55.082Z,159107.06
2023-04-15T17:01:22.742Z,159092.41
2023-04-15T17:03:53.503Z,159088.38
2023-04-15T17:06:23.053Z,159085.75
2023-04-15T17:08:50.973Z,159076.38
2023-04-15T17:11:18.308Z,159073.72
2023-04-15T17:13:47.388Z,159075.03
2023-04-15T17:16:14.679Z,159073.72
2023-04-15T17:18:42.407Z,159060.38
2023-04-15T17:21:09.792Z,159039.03
2023-04-15T17:23:37.536Z,159044.38
2023-04-15T17:26:05.070Z,159044.38
2023-04-15T17:28:32.760Z,159047.03
2023-04-15T17:31:00.181Z,159032.38
2023-04-15T17:33:57.536Z,159031.06
2023-04-15T17:36:15.262Z,159019.03
2023-04-15T17:38:43.012Z,159008.38
2023-04-15T17:41:10.860Z,159004.38
2023-04-15T17:43:38.622Z,159004.38
2023-04-15T17:46:07.460Z,158996.38
2023-04-15T17:48:35.532Z,158988.38
2023-04-15T17:51:03.051Z,158984.34
2023-04-15T17:53:31.114Z,158953.72
2023-04-15T17:55:59.481Z,158951.00
2023-04-15T17:58:28.324Z,158971.03
2023-04-15T18:00:55.513Z,158948.38
2023-04-15T18:03:23.392Z,158940.38
2023-04-15T18:05:51.183Z,158937.72
2023-04-15T18:08:18.707Z,158939.06
2023-04-15T18:10:46.004Z,158940.38
2023-04-15T18:13:13.604Z,158937.72
2023-04-15T18:15:41.199Z,158939.06
2023-04-15T18:18:09.341Z,158939.06
2023-04-15T18:20:36.877Z,158912.38
2023-04-15T18:23:04.599Z,158927.03
2023-04-15T18:25:32.225Z,158941.69
2023-04-15T18:28:00.017Z,158925.72
2023-04-15T18:30:27.395Z,158943.03
2023-04-15T18:32:55.435Z,158941.69
2023-04-15T18:35:24.445Z,158929.69
2023-04-15T18:37:53.236Z,158933.72
2023-04-15T18:40:20.677Z,158921.69
2023-04-15T18:42:48.435Z,158927.03
2023-04-15T18:45:15.988Z,158931.06
2023-04-15T18:47:44.147Z,158933.72
2023-04-15T18:50:11.872Z,158931.06
2023-04-15T18:52:39.744Z,158916.41
2023-04-15T18:55:07.800Z,158921.69
2023-04-15T18:57:36.965Z,158925.72
2023-04-15T19:00:06.275Z,158909.72
2023-04-15T19:02:34.241Z,158913.69
2023-04-15T19:05:04.507Z,158908.34
2023-04-15T19:07:32.662Z,158900.38
2023-04-15T19:10:00.948Z,158900.38
2023-04-15T19:12:29.691Z,158904.38
2023-04-15T19:14:57.200Z,158896.41
2023-04-15T19:17:24.913Z,158885.72
2023-04-15T19:19:52.372Z,158883.06
2023-04-15T19:22:20.231Z,158888.41
2023-04-15T19:24:47.544Z,158884.38
2023-04-15T19:27:15.934Z,158875.06
2023-04-15T19:29:43.487Z,158868.41
2023-04-15T19:32:14.189Z,158873.69
2023-04-15T19:34:42.130Z,158860.41
2023-04-15T19:37:10.084Z,158865.72
2023-04-15T19:39:37.686Z,158860.41
2023-04-15T19:42:05.783Z,158868.41
2023-04-15T19:44:33.238Z,158864.38
2023-04-15T19:47:01.171Z,158865.72
2023-04-15T19:49:28.620Z,158848.41
2023-04-15T19:51:56.535Z,158836.38
2023-04-15T19:54:24.273Z,158848.41
2023-04-15T19:56:51.959Z,158849.72
2023-04-15T19:59:19.410Z,158851.03
2023-04-15T20:01:47.572Z,158851.03
2023-04-15T20:04:15.080Z,158843.06
2023-04-15T20:06:43.347Z,158831.03
2023-04-15T20:09:11.640Z,158829.72
2023-04-15T20:12:46.954Z,158824.38
2023-04-15T20:14:27.064Z,158827.06
2023-04-15T20:16:54.887Z,158829.72
2023-04-15T20:19:22.309Z,158824.38
2023-04-15T20:21:52.065Z,158832.41
2023-04-15T20:24:22.448Z,158831.03
2023-04-15T20:26:52.243Z,158831.03
2023-04-15T20:29:19.798Z,158801.72
2023-04-15T20:31:47.795Z,158800.41
2023-04-15T20:34:15.212Z,158797.75
2023-04-15T20:36:43.362Z,158771.06
2023-04-15T20:39:10.834Z,158781.75
2023-04-15T20:41:39.047Z,158788.41
2023-04-15T20:44:06.978Z,158781.75
2023-04-15T20:46:34.762Z,158780.41
2023-04-15T20:49:02.227Z,158785.75
2023-04-15T20:51:33.269Z,158780.41
2023-04-15T20:54:00.686Z,158772.38
2023-04-15T20:56:28.548Z,158755.06
2023-04-15T20:58:56.160Z,158753.69
2023-04-15T21:01:23.989Z,158757.72
2023-04-15T21:03:51.609Z,158749.72
2023-04-15T21:06:19.292Z,158741.75
2023-04-15T21:08:46.596Z,158731.06
2023-04-15T21:11:21.890Z,158721.75
2023-04-15T21:14:02.012Z,158727.09
2023-04-15T21:16:31.932Z,158732.38
2023-04-15T21:18:59.360Z,158719.06
2023-04-15T21:21:28.336Z,158721.75
2023-04-15T21:23:55.916Z,158723.06
2023-04-15T21:26:23.752Z,158705.78
2023-04-15T21:28:51.165Z,158700.44
2023-04-15T21:31:20.632Z,158685.78
2023-04-15T21:33:48.014Z,158677.81
2023-04-15T21:36:16.112Z,158668.44
2023-04-15T21:38:43.361Z,158661.78
2023-04-15T21:41:11.228Z,158652.47
2023-04-15T21:43:38.682Z,158649.81
2023-04-15T21:46:23.578Z,158640.47
2023-04-15T21:48:55.905Z,158637.81
2023-04-15T21:51:23.610Z,158637.81
2023-04-15T21:53:51.143Z,158637.81
2023-04-15T21:56:20.764Z,158627.13
2023-04-15T21:58:48.150Z,158620.47
2023-04-15T22:01:15.843Z,158631.16
2023-04-15T22:03:43.317Z,158629.84
2023-04-15T22:06:11.465Z,158632.47
2023-04-15T22:08:52.488Z,158608.53
2023-04-15T22:11:28.765Z,158619.16
2023-04-15T22:13:57.667Z,158612.50
2023-04-15T22:16:26.848Z,158600.53
2023-04-15T22:18:55.397Z,158620.47
2023-04-15T22:21:23.689Z,158607.19
2023-04-15T22:23:51.386Z,158603.19
2023-04-15T22:26:19.005Z,158593.88
2023-04-15T22:28:46.393Z,158600.53
2023-04-15T22:31:15.318Z,158603.19
2023-04-15T22:33:43.358Z,158597.84
2023-04-15T22:36:10.970Z,158589.84
2023-04-15T22:38:38.459Z,158599.16
2023-04-15T22:41:06.731Z,158587.22
2023-04-15T22:43:34.231Z,158576.53
2023-04-15T22:46:01.881Z,158576.53
2023-04-15T22:48:29.292Z,158564.59
2023-04-15T22:50:56.978Z,158571.19
2023-04-15T22:53:24.381Z,158577.84
2023-04-15T22:55:52.125Z,158561.88
2023-04-15T22:58:19.829Z,158567.22
2023-04-15T23:00:47.510Z,158575.22
2023-04-15T23:03:15.180Z,158563.22
2023-04-15T23:05:46.160Z,158560.56
2023-04-15T23:08:13.662Z,158557.91
2023-04-15T23:10:41.325Z,158551.25
2023-04-15T23:13:08.759Z,158545.91
2023-04-15T23:15:36.742Z,158556.53
2023-04-15T23:18:04.059Z,158567.22
2023-04-15T23:20:31.655Z,158567.22
2023-04-15T23:22:58.958Z,158569.88
2023-04-15T23:25:26.518Z,158555.22
2023-04-15T23:27:54.106Z,158561.88
2023-04-15T23:30:22.224Z,158563.22
2023-04-15T23:32:49.573Z,158540.59
2023-04-15T23:35:17.129Z,158543.22
2023-04-15T23:37:44.591Z,158539.25
2023-04-15T23:40:12.812Z,158524.63
2023-04-15T23:42:40.165Z,158527.25
2023-04-15T23:45:09.387Z,158531.28
2023-04-15T23:47:36.825Z,158539.25
2023-04-15T23:50:04.498Z,158515.31
2023-04-15T23:52:31.840Z,158511.28
2023-04-15T23:55:00.240Z,158548.56
2023-04-15T23:57:27.432Z,158541.91
2023-04-15T23:59:55.083Z,158535.25
